sensor_id;sensor_type;location;lat;lon;timestamp;temperature;humidity
26336;DHT22;14047;50.936;4.654;2024-02-21T00:01:03;10.00;99.90
26336;DHT22;14047;50.936;4.654;2024-02-21T00:03:30;9.90;99.90
26336;DHT22;14047;50.936;4.654;2024-02-21T00:05:56;10.00;99.90
26336;DHT22;14047;50.936;4.654;2024-02-21T00:08:22;9.80;99.90
26336;DHT22;14047;50.936;4.654;2024-02-21T00:10:47;9.90;99.90
26336;DHT22;14047;50.936;4.654;2024-02-21T00:13:15;10.00;99.90
26336;DHT22;14047;50.936;4.654;2024-02-21T00:15:40;10.00;99.90
26336;DHT22;14047;50.936;4.654;2024-02-21T00:18:06;10.00;99.90
26336;DHT22;14047;50.936;4.654;2024-02-21T00:20:32;10.00;99.90
26336;DHT22;14047;50.936;4.654;2024-02-21T00:22:58;10.00;99.90
26336;DHT22;14047;50.936;4.654;2024-02-21T00:25:24;10.00;99.90
26336;DHT22;14047;50.936;4.654;2024-02-21T00:27:50;9.90;99.90
26336;DHT22;14047;50.936;4.654;2024-02-21T00:30:16;9.90;99.90
26336;DHT22;14047;50.936;4.654;2024-02-21T00:32:42;9.90;99.90
26336;DHT22;14047;50.936;4.654;2024-02-21T00:35:08;9.90;99.90
26336;DHT22;14047;50.936;4.654;2024-02-21T00:37:34;9.80;99.90
26336;DHT22;14047;50.936;4.654;2024-02-21T00:40:00;9.80;99.90
26336;DHT22;14047;50.936;4.654;2024-02-21T00:42:26;9.90;99.90
26336;DHT22;14047;50.936;4.654;2024-02-21T00:44:52;9.90;99.90
26336;DHT22;14047;50.936;4.654;2024-02-21T00:47:18;9.90;99.90
26336;DHT22;14047;50.936;4.654;2024-02-21T00:49:44;9.80;99.90
26336;DHT22;14047;50.936;4.654;2024-02-21T00:52:10;9.80;99.90
26336;DHT22;14047;50.936;4.654;2024-02-21T00:54:36;9.80;99.90
26336;DHT22;14047;50.936;4.654;2024-02-21T00:57:02;9.80;99.90
26336;DHT22;14047;50.936;4.654;2024-02-21T00:59:28;9.80;99.90
26336;DHT22;14047;50.936;4.654;2024-02-21T01:01:54;9.80;99.90
26336;DHT22;14047;50.936;4.654;2024-02-21T01:04:20;9.80;99.90
26336;DHT22;14047;50.936;4.654;2024-02-21T01:06:46;9.90;99.90
26336;DHT22;14047;50.936;4.654;2024-02-21T01:09:11;9.90;99.90
26336;DHT22;14047;50.936;4.654;2024-02-21T01:11:37;9.90;99.90
26336;DHT22;14047;50.936;4.654;2024-02-21T01:14:03;9.90;99.90
26336;DHT22;14047;50.936;4.654;2024-02-21T01:16:29;9.80;99.90
26336;DHT22;14047;50.936;4.654;2024-02-21T01:18:55;9.80;99.90
26336;DHT22;14047;50.936;4.654;2024-02-21T01:21:21;9.70;99.90
26336;DHT22;14047;50.936;4.654;2024-02-21T01:23:47;9.80;99.90
26336;DHT22;14047;50.936;4.654;2024-02-21T01:26:13;9.80;99.90
26336;DHT22;14047;50.936;4.654;2024-02-21T01:28:41;10.00;99.90
26336;DHT22;14047;50.936;4.654;2024-02-21T01:31:07;10.20;99.90
26336;DHT22;14047;50.936;4.654;2024-02-21T01:33:33;10.50;99.90
26336;DHT22;14047;50.936;4.654;2024-02-21T01:36:05;10.80;99.90
26336;DHT22;14047;50.936;4.654;2024-02-21T01:38:34;11.00;99.90
26336;DHT22;14047;50.936;4.654;2024-02-21T01:41:00;11.10;99.90
26336;DHT22;14047;50.936;4.654;2024-02-21T01:43:26;11.20;99.90
26336;DHT22;14047;50.936;4.654;2024-02-21T01:45:54;11.20;99.90
26336;DHT22;14047;50.936;4.654;2024-02-21T01:48:22;11.30;99.90
26336;DHT22;14047;50.936;4.654;2024-02-21T01:50:52;11.30;99.90
26336;DHT22;14047;50.936;4.654;2024-02-21T01:53:29;11.20;99.90
26336;DHT22;14047;50.936;4.654;2024-02-21T01:55:55;11.20;99.90
26336;DHT22;14047;50.936;4.654;2024-02-21T01:58:22;11.10;99.90
26336;DHT22;14047;50.936;4.654;2024-02-21T02:00:48;11.00;99.90
26336;DHT22;14047;50.936;4.654;2024-02-21T02:03:16;11.00;99.90
26336;DHT22;14047;50.936;4.654;2024-02-21T02:05:49;11.10;99.90
26336;DHT22;14047;50.936;4.654;2024-02-21T02:08:16;11.00;99.90
26336;DHT22;14047;50.936;4.654;2024-02-21T02:10:43;11.00;99.90
26336;DHT22;14047;50.936;4.654;2024-02-21T02:13:09;11.10;99.90
26336;DHT22;14047;50.936;4.654;2024-02-21T02:15:40;11.00;99.90
26336;DHT22;14047;50.936;4.654;2024-02-21T02:18:06;10.90;99.90
26336;DHT22;14047;50.936;4.654;2024-02-21T02:20:32;10.90;99.90
26336;DHT22;14047;50.936;4.654;2024-02-21T02:23:09;10.90;99.90
26336;DHT22;14047;50.936;4.654;2024-02-21T02:25:36;10.80;99.90
26336;DHT22;14047;50.936;4.654;2024-02-21T02:28:11;10.90;99.90
26336;DHT22;14047;50.936;4.654;2024-02-21T02:30:37;11.00;99.90
26336;DHT22;14047;50.936;4.654;2024-02-21T02:33:04;11.00;99.90
26336;DHT22;14047;50.936;4.654;2024-02-21T02:35:30;10.70;99.90
26336;DHT22;14047;50.936;4.654;2024-02-21T02:37:56;10.60;99.90
26336;DHT22;14047;50.936;4.654;2024-02-21T02:40:22;10.40;99.90
26336;DHT22;14047;50.936;4.654;2024-02-21T02:42:49;10.20;99.90
26336;DHT22;14047;50.936;4.654;2024-02-21T02:45:15;10.20;99.90
26336;DHT22;14047;50.936;4.654;2024-02-21T02:47:41;10.30;99.90
26336;DHT22;14047;50.936;4.654;2024-02-21T02:50:08;10.40;99.90
26336;DHT22;14047;50.936;4.654;2024-02-21T02:52:34;10.40;99.90
26336;DHT22;14047;50.936;4.654;2024-02-21T02:55:00;10.50;99.90
26336;DHT22;14047;50.936;4.654;2024-02-21T02:57:27;10.20;99.90
26336;DHT22;14047;50.936;4.654;2024-02-21T02:59:53;10.10;99.90
26336;DHT22;14047;50.936;4.654;2024-02-21T03:02:19;10.00;99.90
26336;DHT22;14047;50.936;4.654;2024-02-21T03:04:45;10.00;99.90
26336;DHT22;14047;50.936;4.654;2024-02-21T03:07:11;10.10;99.90
26336;DHT22;14047;50.936;4.654;2024-02-21T03:09:37;10.20;99.90
26336;DHT22;14047;50.936;4.654;2024-02-21T03:12:05;10.40;99.90
26336;DHT22;14047;50.936;4.654;2024-02-21T03:14:34;10.50;99.90
26336;DHT22;14047;50.936;4.654;2024-02-21T03:17:01;10.70;99.90
26336;DHT22;14047;50.936;4.654;2024-02-21T03:19:28;10.80;99.90
26336;DHT22;14047;50.936;4.654;2024-02-21T03:21:55;11.00;99.90
26336;DHT22;14047;50.936;4.654;2024-02-21T03:24:21;11.00;99.90
26336;DHT22;14047;50.936;4.654;2024-02-21T03:26:47;11.00;99.90
26336;DHT22;14047;50.936;4.654;2024-02-21T03:29:15;11.00;99.90
26336;DHT22;14047;50.936;4.654;2024-02-21T03:31:42;11.10;99.90
26336;DHT22;14047;50.936;4.654;2024-02-21T03:34:09;11.00;99.90
26336;DHT22;14047;50.936;4.654;2024-02-21T03:36:35;11.10;99.90
26336;DHT22;14047;50.936;4.654;2024-02-21T03:39:01;11.10;99.90
26336;DHT22;14047;50.936;4.654;2024-02-21T03:41:29;11.10;99.90
26336;DHT22;14047;50.936;4.654;2024-02-21T03:43:55;11.20;99.90
26336;DHT22;14047;50.936;4.654;2024-02-21T03:46:21;11.20;99.90
26336;DHT22;14047;50.936;4.654;2024-02-21T03:48:47;11.20;99.90
26336;DHT22;14047;50.936;4.654;2024-02-21T03:51:13;11.20;99.90
26336;DHT22;14047;50.936;4.654;2024-02-21T03:53:40;11.20;99.90
26336;DHT22;14047;50.936;4.654;2024-02-21T03:56:06;11.20;99.90
26336;DHT22;14047;50.936;4.654;2024-02-21T03:58:33;11.20;99.90
26336;DHT22;14047;50.936;4.654;2024-02-21T04:01:03;11.20;99.90
26336;DHT22;14047;50.936;4.654;2024-02-21T04:03:30;11.30;99.90
26336;DHT22;14047;50.936;4.654;2024-02-21T04:05:56;11.20;99.90
26336;DHT22;14047;50.936;4.654;2024-02-21T04:08:23;11.00;99.90
26336;DHT22;14047;50.936;4.654;2024-02-21T04:10:49;11.00;99.90
26336;DHT22;14047;50.936;4.654;2024-02-21T04:13:15;11.00;99.90
26336;DHT22;14047;50.936;4.654;2024-02-21T04:15:41;11.00;99.90
26336;DHT22;14047;50.936;4.654;2024-02-21T04:18:07;11.00;99.90
26336;DHT22;14047;50.936;4.654;2024-02-21T04:20:34;11.00;99.90
26336;DHT22;14047;50.936;4.654;2024-02-21T04:23:01;11.00;99.90
26336;DHT22;14047;50.936;4.654;2024-02-21T04:25:27;11.00;99.90
26336;DHT22;14047;50.936;4.654;2024-02-21T04:27:52;10.90;99.90
26336;DHT22;14047;50.936;4.654;2024-02-21T04:30:19;10.80;99.90
26336;DHT22;14047;50.936;4.654;2024-02-21T04:32:44;11.00;99.90
26336;DHT22;14047;50.936;4.654;2024-02-21T04:35:10;11.00;99.90
26336;DHT22;14047;50.936;4.654;2024-02-21T04:37:36;11.00;99.90
26336;DHT22;14047;50.936;4.654;2024-02-21T04:40:03;11.00;99.90
26336;DHT22;14047;50.936;4.654;2024-02-21T04:42:29;11.00;99.90
26336;DHT22;14047;50.936;4.654;2024-02-21T04:44:55;11.00;99.90
26336;DHT22;14047;50.936;4.654;2024-02-21T04:47:21;11.00;99.90
26336;DHT22;14047;50.936;4.654;2024-02-21T04:49:49;11.10;99.90
26336;DHT22;14047;50.936;4.654;2024-02-21T04:52:15;11.10;99.90
26336;DHT22;14047;50.936;4.654;2024-02-21T04:54:41;11.20;99.90
26336;DHT22;14047;50.936;4.654;2024-02-21T04:57:07;11.10;99.90
26336;DHT22;14047;50.936;4.654;2024-02-21T04:59:33;11.10;99.90
26336;DHT22;14047;50.936;4.654;2024-02-21T05:02:00;11.20;99.90
26336;DHT22;14047;50.936;4.654;2024-02-21T05:04:26;11.20;99.90
26336;DHT22;14047;50.936;4.654;2024-02-21T05:06:52;11.10;99.90
26336;DHT22;14047;50.936;4.654;2024-02-21T05:09:18;11.10;99.90
26336;DHT22;14047;50.936;4.654;2024-02-21T05:11:44;11.10;99.90
26336;DHT22;14047;50.936;4.654;2024-02-21T05:14:10;11.10;99.90
26336;DHT22;14047;50.936;4.654;2024-02-21T05:16:36;11.00;99.90
26336;DHT22;14047;50.936;4.654;2024-02-21T05:19:02;11.00;99.90
26336;DHT22;14047;50.936;4.654;2024-02-21T05:21:30;11.00;99.90
26336;DHT22;14047;50.936;4.654;2024-02-21T05:23:56;11.00;99.90
26336;DHT22;14047;50.936;4.654;2024-02-21T05:26:25;11.00;99.90
26336;DHT22;14047;50.936;4.654;2024-02-21T05:28:51;11.10;99.90
26336;DHT22;14047;50.936;4.654;2024-02-21T05:31:18;11.10;99.90
26336;DHT22;14047;50.936;4.654;2024-02-21T05:33:45;11.00;99.90
26336;DHT22;14047;50.936;4.654;2024-02-21T05:36:11;11.00;99.90
26336;DHT22;14047;50.936;4.654;2024-02-21T05:38:37;10.90;99.90
26336;DHT22;14047;50.936;4.654;2024-02-21T05:41:04;10.90;99.90
26336;DHT22;14047;50.936;4.654;2024-02-21T05:43:30;10.90;99.90
26336;DHT22;14047;50.936;4.654;2024-02-21T05:45:56;10.90;99.90
26336;DHT22;14047;50.936;4.654;2024-02-21T05:48:23;10.90;99.90
26336;DHT22;14047;50.936;4.654;2024-02-21T05:50:49;10.80;99.90
26336;DHT22;14047;50.936;4.654;2024-02-21T05:53:16;10.80;99.90
26336;DHT22;14047;50.936;4.654;2024-02-21T05:55:42;10.80;99.90
26336;DHT22;14047;50.936;4.654;2024-02-21T05:58:08;10.80;99.90
26336;DHT22;14047;50.936;4.654;2024-02-21T06:00:37;10.90;99.90
26336;DHT22;14047;50.936;4.654;2024-02-21T06:03:03;10.90;99.90
26336;DHT22;14047;50.936;4.654;2024-02-21T06:05:29;10.80;99.90
26336;DHT22;14047;50.936;4.654;2024-02-21T06:07:56;10.70;99.90
26336;DHT22;14047;50.936;4.654;2024-02-21T06:10:22;10.80;99.90
26336;DHT22;14047;50.936;4.654;2024-02-21T06:12:48;10.80;99.90
26336;DHT22;14047;50.936;4.654;2024-02-21T06:15:14;10.80;99.90
26336;DHT22;14047;50.936;4.654;2024-02-21T06:17:40;10.80;99.90
26336;DHT22;14047;50.936;4.654;2024-02-21T06:20:06;10.90;99.90
26336;DHT22;14047;50.936;4.654;2024-02-21T06:22:33;10.90;99.90
26336;DHT22;14047;50.936;4.654;2024-02-21T06:24:59;10.80;99.90
26336;DHT22;14047;50.936;4.654;2024-02-21T06:27:25;10.90;99.90
26336;DHT22;14047;50.936;4.654;2024-02-21T06:29:51;10.90;99.90
26336;DHT22;14047;50.936;4.654;2024-02-21T06:32:17;10.90;99.90
26336;DHT22;14047;50.936;4.654;2024-02-21T06:34:43;11.00;99.90
26336;DHT22;14047;50.936;4.654;2024-02-21T06:37:09;11.10;99.90
26336;DHT22;14047;50.936;4.654;2024-02-21T06:39:35;11.00;99.90
26336;DHT22;14047;50.936;4.654;2024-02-21T06:42:03;11.00;99.90
26336;DHT22;14047;50.936;4.654;2024-02-21T06:44:29;11.00;99.90
26336;DHT22;14047;50.936;4.654;2024-02-21T06:46:57;10.90;99.90
26336;DHT22;14047;50.936;4.654;2024-02-21T06:49:24;11.00;99.90
26336;DHT22;14047;50.936;4.654;2024-02-21T06:51:50;11.00;99.90
26336;DHT22;14047;50.936;4.654;2024-02-21T06:54:16;11.10;99.90
26336;DHT22;14047;50.936;4.654;2024-02-21T06:56:42;11.10;99.90
26336;DHT22;14047;50.936;4.654;2024-02-21T06:59:08;11.00;99.90
26336;DHT22;14047;50.936;4.654;2024-02-21T07:01:34;11.10;99.90
26336;DHT22;14047;50.936;4.654;2024-02-21T07:04:00;11.10;99.90
26336;DHT22;14047;50.936;4.654;2024-02-21T07:06:26;11.10;99.90
26336;DHT22;14047;50.936;4.654;2024-02-21T07:08:52;11.00;99.90
26336;DHT22;14047;50.936;4.654;2024-02-21T07:11:18;11.10;99.90
26336;DHT22;14047;50.936;4.654;2024-02-21T07:13:44;11.10;99.90
26336;DHT22;14047;50.936;4.654;2024-02-21T07:16:10;11.10;99.90
26336;DHT22;14047;50.936;4.654;2024-02-21T07:18:35;11.10;99.90
26336;DHT22;14047;50.936;4.654;2024-02-21T07:21:01;11.10;99.90
26336;DHT22;14047;50.936;4.654;2024-02-21T07:23:27;11.00;99.90
26336;DHT22;14047;50.936;4.654;2024-02-21T07:25:53;11.00;99.90
26336;DHT22;14047;50.936;4.654;2024-02-21T07:28:19;11.00;99.90
26336;DHT22;14047;50.936;4.654;2024-02-21T07:30:45;11.00;99.90
26336;DHT22;14047;50.936;4.654;2024-02-21T07:33:11;10.90;99.90
26336;DHT22;14047;50.936;4.654;2024-02-21T07:35:37;10.80;99.90
26336;DHT22;14047;50.936;4.654;2024-02-21T07:38:06;10.90;99.90
26336;DHT22;14047;50.936;4.654;2024-02-21T07:40:33;10.90;99.90
26336;DHT22;14047;50.936;4.654;2024-02-21T07:42:59;10.90;99.90
26336;DHT22;14047;50.936;4.654;2024-02-21T07:45:25;11.00;99.90
26336;DHT22;14047;50.936;4.654;2024-02-21T07:47:51;10.90;99.90
26336;DHT22;14047;50.936;4.654;2024-02-21T07:50:17;10.90;99.90
26336;DHT22;14047;50.936;4.654;2024-02-21T07:52:43;10.90;99.90
26336;DHT22;14047;50.936;4.654;2024-02-21T07:55:09;10.80;99.90
26336;DHT22;14047;50.936;4.654;2024-02-21T07:57:36;10.90;99.90
26336;DHT22;14047;50.936;4.654;2024-02-21T08:00:03;10.90;99.90
26336;DHT22;14047;50.936;4.654;2024-02-21T08:02:40;10.90;99.90
26336;DHT22;14047;50.936;4.654;2024-02-21T08:05:08;10.90;99.90
26336;DHT22;14047;50.936;4.654;2024-02-21T08:07:34;11.00;99.90
26336;DHT22;14047;50.936;4.654;2024-02-21T08:10:00;11.00;99.90
26336;DHT22;14047;50.936;4.654;2024-02-21T08:12:26;11.10;99.90
26336;DHT22;14047;50.936;4.654;2024-02-21T08:14:52;11.20;99.90
26336;DHT22;14047;50.936;4.654;2024-02-21T08:17:18;11.10;99.90
26336;DHT22;14047;50.936;4.654;2024-02-21T08:19:44;11.10;99.90
26336;DHT22;14047;50.936;4.654;2024-02-21T08:22:10;11.20;99.90
26336;DHT22;14047;50.936;4.654;2024-02-21T08:24:36;11.20;99.90
26336;DHT22;14047;50.936;4.654;2024-02-21T08:27:02;11.30;99.90
26336;DHT22;14047;50.936;4.654;2024-02-21T08:29:28;11.30;99.90
26336;DHT22;14047;50.936;4.654;2024-02-21T08:31:54;11.40;99.90
26336;DHT22;14047;50.936;4.654;2024-02-21T08:34:20;11.40;99.90
26336;DHT22;14047;50.936;4.654;2024-02-21T08:36:46;11.40;99.90
26336;DHT22;14047;50.936;4.654;2024-02-21T08:39:12;11.40;99.90
26336;DHT22;14047;50.936;4.654;2024-02-21T08:41:42;11.50;99.90
26336;DHT22;14047;50.936;4.654;2024-02-21T08:44:08;11.50;99.90
26336;DHT22;14047;50.936;4.654;2024-02-21T08:46:34;11.40;99.90
26336;DHT22;14047;50.936;4.654;2024-02-21T08:49:06;11.50;99.90
26336;DHT22;14047;50.936;4.654;2024-02-21T08:51:35;11.50;99.90
26336;DHT22;14047;50.936;4.654;2024-02-21T08:54:02;11.50;99.90
26336;DHT22;14047;50.936;4.654;2024-02-21T08:56:30;11.50;99.90
26336;DHT22;14047;50.936;4.654;2024-02-21T08:58:56;11.60;99.90
26336;DHT22;14047;50.936;4.654;2024-02-21T09:01:23;11.60;99.90
26336;DHT22;14047;50.936;4.654;2024-02-21T09:03:49;11.60;99.90
26336;DHT22;14047;50.936;4.654;2024-02-21T09:06:19;11.50;99.90
26336;DHT22;14047;50.936;4.654;2024-02-21T09:08:48;11.60;99.90
26336;DHT22;14047;50.936;4.654;2024-02-21T09:11:15;11.30;99.90
26336;DHT22;14047;50.936;4.654;2024-02-21T09:13:41;11.40;99.90
26336;DHT22;14047;50.936;4.654;2024-02-21T09:16:07;11.50;99.90
26336;DHT22;14047;50.936;4.654;2024-02-21T09:18:33;11.60;99.90
26336;DHT22;14047;50.936;4.654;2024-02-21T09:20:59;11.70;99.90
26336;DHT22;14047;50.936;4.654;2024-02-21T09:23:26;11.80;99.90
26336;DHT22;14047;50.936;4.654;2024-02-21T09:25:52;11.90;99.90
26336;DHT22;14047;50.936;4.654;2024-02-21T09:28:18;11.90;99.90
26336;DHT22;14047;50.936;4.654;2024-02-21T09:30:44;11.80;99.90
26336;DHT22;14047;50.936;4.654;2024-02-21T09:33:11;11.90;99.90
26336;DHT22;14047;50.936;4.654;2024-02-21T09:35:37;12.00;99.90
26336;DHT22;14047;50.936;4.654;2024-02-21T09:38:03;12.00;99.90
26336;DHT22;14047;50.936;4.654;2024-02-21T09:40:29;12.00;99.90
26336;DHT22;14047;50.936;4.654;2024-02-21T09:43:03;12.10;99.90
26336;DHT22;14047;50.936;4.654;2024-02-21T09:45:33;12.30;99.90
26336;DHT22;14047;50.936;4.654;2024-02-21T09:48:30;12.40;99.90
26336;DHT22;14047;50.936;4.654;2024-02-21T09:50:57;12.50;99.90
26336;DHT22;14047;50.936;4.654;2024-02-21T09:53:25;12.60;99.90
26336;DHT22;14047;50.936;4.654;2024-02-21T09:55:52;12.60;99.90
26336;DHT22;14047;50.936;4.654;2024-02-21T09:58:21;12.60;99.90
26336;DHT22;14047;50.936;4.654;2024-02-21T10:00:48;12.70;99.90
26336;DHT22;14047;50.936;4.654;2024-02-21T10:03:14;12.80;99.90
26336;DHT22;14047;50.936;4.654;2024-02-21T10:05:47;12.80;99.90
26336;DHT22;14047;50.936;4.654;2024-02-21T10:08:14;12.70;99.90
26336;DHT22;14047;50.936;4.654;2024-02-21T10:10:45;12.80;99.90
26336;DHT22;14047;50.936;4.654;2024-02-21T10:13:25;12.80;99.90
26336;DHT22;14047;50.936;4.654;2024-02-21T10:16:06;13.00;99.90
26336;DHT22;14047;50.936;4.654;2024-02-21T10:18:33;12.90;99.90
26336;DHT22;14047;50.936;4.654;2024-02-21T10:21:01;12.90;99.90
26336;DHT22;14047;50.936;4.654;2024-02-21T10:23:27;12.70;99.90
26336;DHT22;14047;50.936;4.654;2024-02-21T10:25:53;12.60;99.90
26336;DHT22;14047;50.936;4.654;2024-02-21T10:28:19;12.50;99.90
26336;DHT22;14047;50.936;4.654;2024-02-21T10:30:52;12.50;99.90
26336;DHT22;14047;50.936;4.654;2024-02-21T10:33:18;12.30;99.90
26336;DHT22;14047;50.936;4.654;2024-02-21T10:35:47;12.40;99.90
26336;DHT22;14047;50.936;4.654;2024-02-21T10:38:15;12.70;99.90
26336;DHT22;14047;50.936;4.654;2024-02-21T10:40:41;12.80;99.90
26336;DHT22;14047;50.936;4.654;2024-02-21T10:43:12;12.80;99.90
26336;DHT22;14047;50.936;4.654;2024-02-21T10:45:41;12.90;99.90
26336;DHT22;14047;50.936;4.654;2024-02-21T10:48:15;12.90;99.90
26336;DHT22;14047;50.936;4.654;2024-02-21T10:50:56;12.80;99.90
26336;DHT22;14047;50.936;4.654;2024-02-21T10:56:12;12.50;99.90
26336;DHT22;14047;50.936;4.654;2024-02-21T10:58:42;12.60;99.90
26336;DHT22;14047;50.936;4.654;2024-02-21T11:01:10;12.90;99.90
26336;DHT22;14047;50.936;4.654;2024-02-21T11:03:38;12.50;99.90
26336;DHT22;14047;50.936;4.654;2024-02-21T11:06:05;12.70;99.90
26336;DHT22;14047;50.936;4.654;2024-02-21T11:08:31;12.70;99.90
26336;DHT22;14047;50.936;4.654;2024-02-21T11:10:59;12.60;99.90
26336;DHT22;14047;50.936;4.654;2024-02-21T11:13:35;12.80;99.90
26336;DHT22;14047;50.936;4.654;2024-02-21T11:16:11;12.90;99.90
26336;DHT22;14047;50.936;4.654;2024-02-21T11:18:38;13.10;99.90
26336;DHT22;14047;50.936;4.654;2024-02-21T11:21:04;13.20;99.90
26336;DHT22;14047;50.936;4.654;2024-02-21T11:23:31;13.00;99.90
26336;DHT22;14047;50.936;4.654;2024-02-21T11:26:10;13.00;99.90
26336;DHT22;14047;50.936;4.654;2024-02-21T11:28:44;13.10;99.90
26336;DHT22;14047;50.936;4.654;2024-02-21T11:31:12;13.20;99.90
26336;DHT22;14047;50.936;4.654;2024-02-21T11:33:42;13.20;99.90
26336;DHT22;14047;50.936;4.654;2024-02-21T11:36:09;13.30;99.90
26336;DHT22;14047;50.936;4.654;2024-02-21T11:38:36;13.30;99.90
26336;DHT22;14047;50.936;4.654;2024-02-21T11:41:02;13.10;99.90
26336;DHT22;14047;50.936;4.654;2024-02-21T11:43:28;13.20;99.90
26336;DHT22;14047;50.936;4.654;2024-02-21T11:46:01;13.30;99.90
26336;DHT22;14047;50.936;4.654;2024-02-21T11:48:31;13.30;99.90
26336;DHT22;14047;50.936;4.654;2024-02-21T11:50:57;13.40;99.90
26336;DHT22;14047;50.936;4.654;2024-02-21T11:53:23;13.50;99.90
26336;DHT22;14047;50.936;4.654;2024-02-21T11:55:53;13.40;99.90
26336;DHT22;14047;50.936;4.654;2024-02-21T11:58:21;13.30;99.90
26336;DHT22;14047;50.936;4.654;2024-02-21T12:00:47;12.90;99.90
26336;DHT22;14047;50.936;4.654;2024-02-21T12:03:13;12.70;99.90
26336;DHT22;14047;50.936;4.654;2024-02-21T12:05:39;12.60;99.90
26336;DHT22;14047;50.936;4.654;2024-02-21T12:08:06;12.40;99.90
26336;DHT22;14047;50.936;4.654;2024-02-21T12:10:33;12.60;99.90
26336;DHT22;14047;50.936;4.654;2024-02-21T12:13:07;12.70;99.90
26336;DHT22;14047;50.936;4.654;2024-02-21T12:15:33;12.70;99.90
26336;DHT22;14047;50.936;4.654;2024-02-21T12:18:00;12.30;99.90
26336;DHT22;14047;50.936;4.654;2024-02-21T12:20:26;12.30;99.90
26336;DHT22;14047;50.936;4.654;2024-02-21T12:22:52;12.10;99.90
26336;DHT22;14047;50.936;4.654;2024-02-21T12:25:21;12.30;99.90
26336;DHT22;14047;50.936;4.654;2024-02-21T12:27:54;12.10;99.90
26336;DHT22;14047;50.936;4.654;2024-02-21T12:30:21;11.90;99.90
26336;DHT22;14047;50.936;4.654;2024-02-21T12:32:47;12.10;99.90
26336;DHT22;14047;50.936;4.654;2024-02-21T12:35:14;12.30;99.90
26336;DHT22;14047;50.936;4.654;2024-02-21T12:37:40;12.10;99.90
26336;DHT22;14047;50.936;4.654;2024-02-21T12:40:07;11.80;99.90
26336;DHT22;14047;50.936;4.654;2024-02-21T12:42:34;11.90;99.90
26336;DHT22;14047;50.936;4.654;2024-02-21T12:45:01;12.20;99.90
26336;DHT22;14047;50.936;4.654;2024-02-21T12:47:27;12.40;99.90
26336;DHT22;14047;50.936;4.654;2024-02-21T12:49:53;12.20;99.90
26336;DHT22;14047;50.936;4.654;2024-02-21T12:52:19;12.20;99.90
26336;DHT22;14047;50.936;4.654;2024-02-21T12:54:45;12.40;99.90
26336;DHT22;14047;50.936;4.654;2024-02-21T12:57:11;12.40;99.90
26336;DHT22;14047;50.936;4.654;2024-02-21T12:59:37;12.50;99.90
26336;DHT22;14047;50.936;4.654;2024-02-21T13:02:03;12.40;99.90
26336;DHT22;14047;50.936;4.654;2024-02-21T13:04:29;12.60;99.90
26336;DHT22;14047;50.936;4.654;2024-02-21T13:06:55;12.70;99.90
26336;DHT22;14047;50.936;4.654;2024-02-21T13:09:21;12.60;99.90
26336;DHT22;14047;50.936;4.654;2024-02-21T13:11:47;12.70;99.90
26336;DHT22;14047;50.936;4.654;2024-02-21T13:14:13;12.70;99.90
26336;DHT22;14047;50.936;4.654;2024-02-21T13:16:39;12.80;99.90
26336;DHT22;14047;50.936;4.654;2024-02-21T13:19:06;12.70;99.90
26336;DHT22;14047;50.936;4.654;2024-02-21T13:21:34;12.80;99.90
26336;DHT22;14047;50.936;4.654;2024-02-21T13:24:01;12.90;99.90
26336;DHT22;14047;50.936;4.654;2024-02-21T13:26:27;12.70;99.90
26336;DHT22;14047;50.936;4.654;2024-02-21T13:28:53;12.40;99.90
26336;DHT22;14047;50.936;4.654;2024-02-21T13:31:20;12.70;99.90
26336;DHT22;14047;50.936;4.654;2024-02-21T13:33:46;12.90;99.90
26336;DHT22;14047;50.936;4.654;2024-02-21T13:36:12;12.90;99.90
26336;DHT22;14047;50.936;4.654;2024-02-21T13:38:38;12.90;99.90
26336;DHT22;14047;50.936;4.654;2024-02-21T13:41:05;12.90;99.90
26336;DHT22;14047;50.936;4.654;2024-02-21T13:43:32;13.00;99.90
26336;DHT22;14047;50.936;4.654;2024-02-21T13:46:02;12.90;99.90
26336;DHT22;14047;50.936;4.654;2024-02-21T13:48:33;12.80;99.90
26336;DHT22;14047;50.936;4.654;2024-02-21T13:50:59;12.60;99.90
26336;DHT22;14047;50.936;4.654;2024-02-21T13:53:28;12.90;99.90
26336;DHT22;14047;50.936;4.654;2024-02-21T13:55:54;13.00;99.90
26336;DHT22;14047;50.936;4.654;2024-02-21T13:58:20;12.90;99.90
26336;DHT22;14047;50.936;4.654;2024-02-21T14:00:46;12.60;99.90
26336;DHT22;14047;50.936;4.654;2024-02-21T14:03:12;12.60;99.90
26336;DHT22;14047;50.936;4.654;2024-02-21T14:05:38;12.80;99.90
26336;DHT22;14047;50.936;4.654;2024-02-21T14:08:07;12.80;99.90
26336;DHT22;14047;50.936;4.654;2024-02-21T14:10:33;13.00;99.90
26336;DHT22;14047;50.936;4.654;2024-02-21T14:12:59;12.90;99.90
26336;DHT22;14047;50.936;4.654;2024-02-21T14:15:26;12.80;99.90
26336;DHT22;14047;50.936;4.654;2024-02-21T14:17:52;12.90;99.90
26336;DHT22;14047;50.936;4.654;2024-02-21T14:20:18;13.00;99.90
26336;DHT22;14047;50.936;4.654;2024-02-21T14:22:44;13.00;99.90
26336;DHT22;14047;50.936;4.654;2024-02-21T14:25:10;12.80;99.90
26336;DHT22;14047;50.936;4.654;2024-02-21T14:27:36;12.70;99.90
26336;DHT22;14047;50.936;4.654;2024-02-21T14:30:03;12.70;99.90
26336;DHT22;14047;50.936;4.654;2024-02-21T14:32:29;12.60;99.90
26336;DHT22;14047;50.936;4.654;2024-02-21T14:34:55;12.60;99.90
26336;DHT22;14047;50.936;4.654;2024-02-21T14:37:21;12.60;99.90
26336;DHT22;14047;50.936;4.654;2024-02-21T14:39:47;12.50;99.90
26336;DHT22;14047;50.936;4.654;2024-02-21T14:42:13;12.50;99.90
26336;DHT22;14047;50.936;4.654;2024-02-21T14:44:39;12.40;99.90
26336;DHT22;14047;50.936;4.654;2024-02-21T14:47:06;12.40;99.90
26336;DHT22;14047;50.936;4.654;2024-02-21T14:49:33;12.40;99.90
26336;DHT22;14047;50.936;4.654;2024-02-21T14:51:58;12.30;99.90
26336;DHT22;14047;50.936;4.654;2024-02-21T14:54:24;12.20;99.90
26336;DHT22;14047;50.936;4.654;2024-02-21T14:56:51;12.10;99.90
26336;DHT22;14047;50.936;4.654;2024-02-21T14:59:17;12.10;99.90
26336;DHT22;14047;50.936;4.654;2024-02-21T15:01:44;12.10;99.90
26336;DHT22;14047;50.936;4.654;2024-02-21T15:04:10;12.10;99.90
26336;DHT22;14047;50.936;4.654;2024-02-21T15:06:36;12.10;99.90
26336;DHT22;14047;50.936;4.654;2024-02-21T15:09:03;12.10;99.90
26336;DHT22;14047;50.936;4.654;2024-02-21T15:11:31;12.10;99.90
26336;DHT22;14047;50.936;4.654;2024-02-21T15:13:57;11.90;99.90
26336;DHT22;14047;50.936;4.654;2024-02-21T15:16:23;11.80;99.90
26336;DHT22;14047;50.936;4.654;2024-02-21T15:18:49;11.80;99.90
26336;DHT22;14047;50.936;4.654;2024-02-21T15:21:15;11.80;99.90
26336;DHT22;14047;50.936;4.654;2024-02-21T15:23:41;11.70;99.90
26336;DHT22;14047;50.936;4.654;2024-02-21T15:26:07;11.50;99.90
26336;DHT22;14047;50.936;4.654;2024-02-21T15:28:34;11.50;99.90
26336;DHT22;14047;50.936;4.654;2024-02-21T15:31:00;11.50;99.90
26336;DHT22;14047;50.936;4.654;2024-02-21T15:33:26;11.50;99.90